Time;durP1;ratioP1;P1;durP2;ratioP2;P2;SDS_P1;SDS_P2;PMS_P1;PMS_P2;Temp;Humidity;BMP_temperature;BMP_pressure;BME280_temperature;BME280_humidity;BME280_pressure;Samples;Min_cycle;Max_cycle;Signal;HPM_P1;HPM_P2
2022/08/03 00:00:38;;;;;;;;;;;18.80;99.90;;;;;;5009177;28;19910;-64
2022/08/03 00:03:03;;;;;;;;;;;18.80;99.90;;;;;;5013002;28;19940;-64
2022/08/03 00:05:29;;;;;;;;;;;18.80;99.90;;;;;;5012676;28;19971;-64
2022/08/03 00:07:54;;;;;;;;;;;18.90;99.90;;;;;;5010753;28;19999;-64
2022/08/03 00:10:20;;;;;;;;;;;18.90;99.90;;;;;;5007892;28;19916;-64
2022/08/03 00:12:45;;;;;;;;;;;19.00;99.90;;;;;;5002343;28;19913;-64
2022/08/03 00:15:11;;;;;;;;;;;19.00;99.90;;;;;;5003604;28;20352;-64
2022/08/03 00:17:36;;;;;;;;;;;19.20;99.90;;;;;;5004815;28;19917;-64
2022/08/03 00:20:02;;;;;;;;;;;19.30;99.90;;;;;;5006242;28;19918;-64
2022/08/03 00:22:27;;;;;;;;;;;19.30;99.90;;;;;;5018572;28;19913;-64
2022/08/03 00:24:53;;;;;;;;;;;19.20;99.90;;;;;;5007949;28;19917;-64
2022/08/03 00:27:19;;;;;;;;;;;19.20;99.90;;;;;;5013915;28;19917;-64
2022/08/03 00:29:44;;;;;;;;;;;19.30;99.90;;;;;;5016331;28;19913;-64
2022/08/03 00:32:09;;;;;;;;;;;19.60;99.90;;;;;;5012397;28;19996;-64
2022/08/03 00:34:35;;;;;;;;;;;19.90;99.90;;;;;;5008308;28;20196;-64
2022/08/03 00:37:01;;;;;;;;;;;20.00;99.90;;;;;;5010358;28;20273;-65
2022/08/03 00:39:26;;;;;;;;;;;19.80;99.90;;;;;;5008840;28;19913;-64
2022/08/03 00:41:52;;;;;;;;;;;19.80;99.90;;;;;;5008982;28;19921;-64
2022/08/03 00:44:18;;;;;;;;;;;19.70;99.90;;;;;;5014958;28;20285;-64
2022/08/03 00:46:43;;;;;;;;;;;19.60;99.90;;;;;;5013593;28;19929;-64
2022/08/03 00:49:09;;;;;;;;;;;19.50;99.90;;;;;;5010838;28;20011;-64
2022/08/03 00:51:34;;;;;;;;;;;19.60;99.90;;;;;;5015614;28;19979;-64
2022/08/03 00:54:00;;;;;;;;;;;19.50;99.90;;;;;;5011216;28;19910;-64
2022/08/03 00:56:25;;;;;;;;;;;19.60;99.90;;;;;;5009976;28;19933;-64
2022/08/03 00:58:53;;;;;;;;;;;19.50;99.90;;;;;;5009729;28;19917;-64
2022/08/03 01:01:18;;;;;;;;;;;19.60;99.90;;;;;;5009481;28;19937;-64
2022/08/03 01:03:44;;;;;;;;;;;19.70;99.90;;;;;;5011177;28;20385;-64
2022/08/03 01:06:17;;;;;;;;;;;19.80;99.90;;;;;;5008197;28;19917;-64
2022/08/03 01:08:46;;;;;;;;;;;19.60;99.90;;;;;;5007900;28;19968;-64
2022/08/03 01:11:12;;;;;;;;;;;19.50;99.90;;;;;;5006005;28;19914;-64
2022/08/03 01:13:46;;;;;;;;;;;19.30;99.90;;;;;;5002911;28;20467;-64
2022/08/03 01:16:18;;;;;;;;;;;19.30;99.90;;;;;;5003911;28;19940;-64
2022/08/03 01:18:52;;;;;;;;;;;19.30;99.90;;;;;;5002597;28;20281;-64
2022/08/03 01:21:31;;;;;;;;;;;19.40;99.90;;;;;;5013552;28;19909;-64
2022/08/03 01:24:07;;;;;;;;;;;19.50;99.90;;;;;;5017923;28;19914;-64
2022/08/03 01:26:52;;;;;;;;;;;19.70;99.90;;;;;;5009313;28;19918;-64
2022/08/03 01:29:27;;;;;;;;;;;19.80;99.90;;;;;;5021948;28;19940;-64
2022/08/03 01:32:05;;;;;;;;;;;19.90;99.90;;;;;;5015091;28;20272;-64
2022/08/03 01:34:34;;;;;;;;;;;20.00;99.90;;;;;;5024958;28;19909;-64
2022/08/03 01:37:02;;;;;;;;;;;20.00;99.90;;;;;;5019907;28;20436;-64
2022/08/03 01:39:29;;;;;;;;;;;20.10;99.90;;;;;;5017685;28;19909;-64
2022/08/03 01:41:58;;;;;;;;;;;20.10;99.90;;;;;;5040575;28;19909;-64
2022/08/03 01:44:28;;;;;;;;;;;20.20;99.90;;;;;;5020166;28;20007;-64
2022/08/03 01:46:56;;;;;;;;;;;20.20;99.90;;;;;;5017432;28;20259;-64
2022/08/03 01:49:23;;;;;;;;;;;20.10;99.90;;;;;;5014242;28;19932;-64
2022/08/03 01:51:49;;;;;;;;;;;20.00;99.90;;;;;;5020828;28;19913;-64
2022/08/03 01:54:15;;;;;;;;;;;19.90;99.90;;;;;;5017393;28;20004;-64
2022/08/03 01:56:41;;;;;;;;;;;19.90;99.90;;;;;;5033837;28;19992;-64
2022/08/03 01:59:08;;;;;;;;;;;19.80;99.90;;;;;;5016585;28;19983;-64
2022/08/03 02:01:35;;;;;;;;;;;19.60;99.90;;;;;;5020375;28;20248;-64
2022/08/03 02:04:01;;;;;;;;;;;19.40;99.90;;;;;;5016358;28;20008;-64
2022/08/03 02:06:29;;;;;;;;;;;19.10;99.90;;;;;;5015647;28;19921;-64
2022/08/03 02:08:55;;;;;;;;;;;18.80;99.90;;;;;;5016408;28;20377;-65
2022/08/03 02:11:21;;;;;;;;;;;18.60;99.90;;;;;;5018859;28;20388;-64
2022/08/03 02:13:47;;;;;;;;;;;18.30;99.90;;;;;;5017355;28;19910;-64
2022/08/03 02:16:13;;;;;;;;;;;18.30;99.90;;;;;;5012985;28;19917;-64
2022/08/03 02:18:39;;;;;;;;;;;18.30;99.90;;;;;;5015458;28;20414;-64
2022/08/03 02:21:06;;;;;;;;;;;18.30;99.90;;;;;;5011281;28;19913;-64
2022/08/03 02:23:32;;;;;;;;;;;18.60;99.90;;;;;;5016764;28;20427;-64
2022/08/03 02:25:59;;;;;;;;;;;18.70;99.90;;;;;;5012735;28;19909;-64
2022/08/03 02:28:28;;;;;;;;;;;18.80;99.90;;;;;;5010886;28;19937;-64
2022/08/03 02:30:54;;;;;;;;;;;18.80;99.90;;;;;;5017499;28;19913;-64
2022/08/03 02:33:23;;;;;;;;;;;18.80;99.90;;;;;;5009246;28;20378;-64
2022/08/03 02:35:49;;;;;;;;;;;18.80;99.90;;;;;;5014879;28;19913;-64
2022/08/03 02:38:17;;;;;;;;;;;18.70;99.90;;;;;;5009222;28;20222;-64
2022/08/03 02:40:43;;;;;;;;;;;18.60;99.90;;;;;;5014532;28;20382;-64
2022/08/03 02:43:10;;;;;;;;;;;18.50;99.90;;;;;;5012013;28;19909;-64
2022/08/03 02:45:41;;;;;;;;;;;18.40;99.90;;;;;;5015513;28;19913;-64
2022/08/03 02:48:07;;;;;;;;;;;18.30;99.90;;;;;;5018181;28;20019;-64
2022/08/03 02:50:33;;;;;;;;;;;18.20;99.90;;;;;;5006073;28;20004;-65
2022/08/03 02:53:00;;;;;;;;;;;18.00;99.90;;;;;;5017343;28;19913;-64
2022/08/03 02:55:26;;;;;;;;;;;17.90;99.90;;;;;;5012669;28;19919;-64
2022/08/03 02:57:53;;;;;;;;;;;17.90;99.90;;;;;;5012234;28;20017;-64
2022/08/03 03:00:19;;;;;;;;;;;17.80;99.90;;;;;;5013899;28;19936;-64
2022/08/03 03:02:44;;;;;;;;;;;17.80;99.90;;;;;;5016551;28;20452;-64
2022/08/03 03:05:10;;;;;;;;;;;17.70;99.90;;;;;;5018493;28;19999;-64
2022/08/03 03:07:36;;;;;;;;;;;17.60;99.90;;;;;;5010948;28;19918;-64
2022/08/03 03:10:03;;;;;;;;;;;17.60;99.90;;;;;;5016782;28;19910;-64
2022/08/03 03:12:30;;;;;;;;;;;17.60;99.90;;;;;;5010311;28;19910;-64
2022/08/03 03:14:55;;;;;;;;;;;17.80;99.90;;;;;;5011836;28;19924;-64
2022/08/03 03:17:21;;;;;;;;;;;18.00;99.90;;;;;;5011625;28;19917;-64
2022/08/03 03:19:48;;;;;;;;;;;18.30;99.90;;;;;;5011555;28;20063;-64
2022/08/03 03:22:14;;;;;;;;;;;18.50;99.90;;;;;;5020187;28;19910;-64
2022/08/03 03:24:40;;;;;;;;;;;18.70;99.90;;;;;;5016870;28;20432;-64
2022/08/03 03:27:06;;;;;;;;;;;18.60;99.90;;;;;;5016530;28;20285;-64
2022/08/03 03:29:33;;;;;;;;;;;18.40;99.90;;;;;;5020159;28;19988;-64
2022/08/03 03:31:59;;;;;;;;;;;18.10;99.90;;;;;;5015393;28;19914;-64
2022/08/03 03:34:25;;;;;;;;;;;18.00;99.90;;;;;;5019762;28;19929;-65
2022/08/03 03:36:51;;;;;;;;;;;18.00;99.90;;;;;;5014103;28;19913;-64
2022/08/03 03:39:16;;;;;;;;;;;17.80;99.90;;;;;;5018217;28;19909;-64
2022/08/03 03:41:42;;;;;;;;;;;17.80;99.90;;;;;;5013521;28;19920;-64
2022/08/03 03:44:07;;;;;;;;;;;17.80;99.90;;;;;;5010595;28;19914;-64
2022/08/03 03:46:33;;;;;;;;;;;17.80;99.90;;;;;;5013366;28;19925;-64
2022/08/03 03:48:59;;;;;;;;;;;18.20;99.90;;;;;;5016502;28;19920;-64
2022/08/03 03:51:24;;;;;;;;;;;18.40;99.90;;;;;;5018152;28;19992;-64
2022/08/03 03:53:56;;;;;;;;;;;18.60;99.90;;;;;;5013879;28;20378;-64
2022/08/03 03:56:22;;;;;;;;;;;18.80;99.90;;;;;;5013950;28;19909;-64
2022/08/03 03:58:47;;;;;;;;;;;18.80;99.90;;;;;;5017318;28;20016;-64
2022/08/03 04:01:13;;;;;;;;;;;18.80;99.90;;;;;;5016601;28;19909;-64
2022/08/03 04:03:38;;;;;;;;;;;18.80;99.90;;;;;;5013015;28;19916;-64
2022/08/03 04:11:38;;;;;;;;;;;18.60;99.90;;;;;;5013807;28;19991;-64
2022/08/03 04:14:03;;;;;;;;;;;18.50;99.90;;;;;;5013996;28;20015;-64
2022/08/03 04:16:40;;;;;;;;;;;18.30;99.90;;;;;;5011563;28;20020;-64
2022/08/03 04:19:10;;;;;;;;;;;18.40;99.90;;;;;;5016717;28;19936;-64
2022/08/03 04:21:39;;;;;;;;;;;18.50;99.90;;;;;;5015356;28;19972;-64
2022/08/03 04:24:07;;;;;;;;;;;18.70;99.90;;;;;;5019505;28;19910;-64
2022/08/03 04:26:35;;;;;;;;;;;18.90;99.90;;;;;;5010837;28;19920;-64
2022/08/03 04:29:01;;;;;;;;;;;19.00;99.90;;;;;;5014907;28;19913;-64
2022/08/03 04:31:27;;;;;;;;;;;19.10;99.90;;;;;;5012631;28;19914;-64
2022/08/03 04:33:53;;;;;;;;;;;19.10;99.90;;;;;;5004045;28;19913;-64
2022/08/03 04:36:21;;;;;;;;;;;19.10;99.90;;;;;;5013783;28;19959;-64
2022/08/03 04:39:01;;;;;;;;;;;19.20;99.90;;;;;;5006834;28;19920;-62
2022/08/03 04:41:27;;;;;;;;;;;19.20;99.90;;;;;;5009038;28;19913;-62
2022/08/03 04:43:57;;;;;;;;;;;19.30;99.90;;;;;;5012414;28;19920;-62
2022/08/03 04:46:25;;;;;;;;;;;19.30;99.90;;;;;;5013669;28;19926;-62
2022/08/03 04:48:51;;;;;;;;;;;19.30;99.90;;;;;;5019674;28;19914;-64
2022/08/03 04:51:16;;;;;;;;;;;19.50;99.90;;;;;;5011020;28;19916;-64
2022/08/03 04:53:42;;;;;;;;;;;19.60;99.90;;;;;;5030275;28;19913;-64
2022/08/03 04:57:22;;;;;;;;;;;19.70;99.90;;;;;;5152601;27;19942;-63
2022/08/03 04:59:51;;;;;;;;;;;19.70;99.90;;;;;;5149045;27;20589;-63
2022/08/03 05:02:17;;;;;;;;;;;19.70;99.90;;;;;;5157323;27;19914;-63
2022/08/03 05:04:45;;;;;;;;;;;19.80;99.90;;;;;;5148356;27;19911;-63
2022/08/03 05:07:14;;;;;;;;;;;19.90;99.90;;;;;;5151993;27;19955;-64
2022/08/03 05:09:40;;;;;;;;;;;19.90;99.90;;;;;;5155314;27;20339;-63
2022/08/03 05:12:05;;;;;;;;;;;20.00;99.90;;;;;;5149316;27;19953;-63
2022/08/03 05:14:32;;;;;;;;;;;20.10;99.90;;;;;;5131781;27;20295;-63
2022/08/03 05:16:57;;;;;;;;;;;20.10;99.90;;;;;;5158186;27;19918;-63
2022/08/03 05:19:23;;;;;;;;;;;20.20;99.90;;;;;;5151857;27;19907;-63
2022/08/03 05:21:49;;;;;;;;;;;20.40;99.90;;;;;;5150307;27;19918;-63
2022/08/03 05:24:14;;;;;;;;;;;20.50;99.90;;;;;;5149580;27;19969;-64
2022/08/03 05:26:40;;;;;;;;;;;20.50;99.90;;;;;;5155152;27;19966;-63
2022/08/03 05:29:06;;;;;;;;;;;20.60;99.90;;;;;;5151594;27;19911;-63
2022/08/03 05:31:31;;;;;;;;;;;20.70;99.90;;;;;;5153969;27;19914;-62
2022/08/03 05:33:57;;;;;;;;;;;20.80;99.90;;;;;;5131101;27;19915;-62
2022/08/03 05:36:22;;;;;;;;;;;20.80;99.90;;;;;;5151344;27;19939;-64
2022/08/03 05:38:48;;;;;;;;;;;20.90;99.90;;;;;;5150630;27;20274;-63
2022/08/03 05:41:13;;;;;;;;;;;21.00;99.90;;;;;;5136034;27;19912;-63
2022/08/03 05:43:39;;;;;;;;;;;21.10;99.90;;;;;;5138828;27;19911;-63
2022/08/03 05:46:04;;;;;;;;;;;21.10;99.90;;;;;;5141028;27;19907;-63
2022/08/03 05:48:30;;;;;;;;;;;21.20;99.90;;;;;;5136159;27;19915;-63
2022/08/03 05:50:55;;;;;;;;;;;21.20;99.90;;;;;;5144576;27;19908;-63
2022/08/03 05:53:21;;;;;;;;;;;21.30;99.90;;;;;;5125918;27;20266;-64
2022/08/03 05:55:46;;;;;;;;;;;21.40;99.90;;;;;;5139733;27;19927;-63
2022/08/03 05:58:12;;;;;;;;;;;21.50;99.90;;;;;;5136020;27;19919;-63
2022/08/03 06:00:38;;;;;;;;;;;21.50;99.90;;;;;;5133865;27;19920;-63
2022/08/03 06:03:04;;;;;;;;;;;21.60;99.90;;;;;;5126686;27;20227;-63
2022/08/03 06:05:30;;;;;;;;;;;21.70;99.90;;;;;;5136742;27;19926;-63
2022/08/03 06:07:55;;;;;;;;;;;21.80;99.90;;;;;;5111720;27;20409;-63
2022/08/03 06:10:21;;;;;;;;;;;21.70;99.90;;;;;;5124760;27;19953;-63
2022/08/03 06:12:48;;;;;;;;;;;21.90;99.90;;;;;;5125349;27;19947;-64
2022/08/03 06:15:14;;;;;;;;;;;21.90;99.90;;;;;;5127783;27;19907;-63
2022/08/03 06:17:49;;;;;;;;;;;21.90;99.90;;;;;;5125210;27;20258;-63
2022/08/03 06:20:16;;;;;;;;;;;22.00;99.90;;;;;;5123410;27;20363;-63
2022/08/03 06:22:42;;;;;;;;;;;22.10;99.90;;;;;;5119238;27;19911;-63
2022/08/03 06:25:08;;;;;;;;;;;22.10;99.90;;;;;;5114663;27;20460;-63
2022/08/03 06:27:35;;;;;;;;;;;22.10;99.90;;;;;;5115829;27;19966;-63
2022/08/03 06:30:01;;;;;;;;;;;22.20;99.90;;;;;;5119962;27;20003;-63
2022/08/03 06:32:26;;;;;;;;;;;22.40;99.90;;;;;;5103190;27;20235;-63
2022/08/03 06:34:52;;;;;;;;;;;22.50;99.90;;;;;;5123540;27;19911;-63
2022/08/03 06:37:17;;;;;;;;;;;22.70;99.90;;;;;;5117917;27;19935;-63
2022/08/03 06:39:43;;;;;;;;;;;22.80;99.90;;;;;;5118933;27;19914;-63
2022/08/03 06:42:09;;;;;;;;;;;23.00;99.90;;;;;;5117987;27;20370;-63
2022/08/03 06:44:36;;;;;;;;;;;23.10;99.90;;;;;;5118881;27;19915;-63
2022/08/03 06:47:01;;;;;;;;;;;23.20;99.90;;;;;;5121662;27;19946;-63
2022/08/03 06:49:27;;;;;;;;;;;23.30;99.90;;;;;;5115321;27;19951;-63
2022/08/03 06:51:53;;;;;;;;;;;23.40;99.90;;;;;;5122096;27;20009;-63
2022/08/03 06:54:21;;;;;;;;;;;23.60;99.90;;;;;;5119085;27;19911;-63
2022/08/03 06:56:46;;;;;;;;;;;23.60;99.90;;;;;;5115653;27;19923;-63
2022/08/03 06:59:12;;;;;;;;;;;23.70;99.90;;;;;;5120817;27;19908;-63
2022/08/03 07:01:37;;;;;;;;;;;23.70;99.90;;;;;;5118644;27;19907;-62
2022/08/03 07:04:03;;;;;;;;;;;23.80;99.90;;;;;;5117279;27;19907;-61
2022/08/03 07:06:29;;;;;;;;;;;23.90;99.90;;;;;;5116775;27;20397;-62
2022/08/03 07:08:55;;;;;;;;;;;23.90;99.90;;;;;;5108874;27;19938;-62
2022/08/03 07:11:21;;;;;;;;;;;24.00;99.90;;;;;;5115291;27;19908;-62
2022/08/03 07:13:46;;;;;;;;;;;24.00;99.90;;;;;;5108713;28;20256;-63
2022/08/03 07:16:12;;;;;;;;;;;24.30;99.90;;;;;;5122992;27;19959;-62
2022/08/03 07:18:37;;;;;;;;;;;24.50;99.90;;;;;;5110197;27;20003;-62
2022/08/03 07:21:03;;;;;;;;;;;24.70;99.90;;;;;;5121379;27;19922;-62
2022/08/03 07:23:28;;;;;;;;;;;24.90;99.90;;;;;;5118288;27;19912;-62
2022/08/03 07:25:54;;;;;;;;;;;25.00;99.90;;;;;;5115163;27;19923;-62
2022/08/03 07:28:19;;;;;;;;;;;24.90;99.90;;;;;;5117666;27;20016;-62
2022/08/03 07:30:45;;;;;;;;;;;24.90;99.90;;;;;;5117491;27;19973;-62
2022/08/03 07:33:11;;;;;;;;;;;24.80;99.90;;;;;;5123523;27;20298;-62
2022/08/03 07:35:36;;;;;;;;;;;24.90;99.90;;;;;;5119173;27;19911;-62
2022/08/03 07:38:02;;;;;;;;;;;25.10;99.90;;;;;;5098625;27;19908;-62
2022/08/03 07:40:27;;;;;;;;;;;25.40;99.90;;;;;;5110271;27;19915;-62
2022/08/03 07:42:53;;;;;;;;;;;25.40;99.90;;;;;;5117928;27;19908;-62
2022/08/03 07:45:20;;;;;;;;;;;25.50;99.90;;;;;;5106182;27;20256;-62
2022/08/03 07:47:45;;;;;;;;;;;25.70;99.90;;;;;;5111716;27;19918;-62
2022/08/03 07:50:11;;;;;;;;;;;25.80;99.90;;;;;;5120602;27;19907;-62
2022/08/03 07:52:48;;;;;;;;;;;26.00;99.90;;;;;;5116360;27;20318;-63
2022/08/03 07:55:14;;;;;;;;;;;26.10;99.90;;;;;;5120206;27;19915;-62
2022/08/03 07:57:40;;;;;;;;;;;26.20;99.90;;;;;;5109886;27;20383;-62
2022/08/03 08:00:10;;;;;;;;;;;26.20;99.90;;;;;;5116232;27;19914;-62
2022/08/03 08:02:35;;;;;;;;;;;26.30;99.90;;;;;;5117463;27;19912;-62
2022/08/03 08:05:01;;;;;;;;;;;26.50;99.90;;;;;;5116407;27;19911;-62
2022/08/03 08:07:26;;;;;;;;;;;26.70;99.90;;;;;;5118340;27;19908;-62
2022/08/03 08:09:52;;;;;;;;;;;26.70;99.90;;;;;;5099142;28;20383;-62
2022/08/03 08:12:17;;;;;;;;;;;26.70;99.90;;;;;;5105164;27;19914;-62
2022/08/03 08:14:45;;;;;;;;;;;26.60;99.90;;;;;;5117896;27;20469;-62
2022/08/03 08:17:11;;;;;;;;;;;26.60;99.90;;;;;;5117892;27;20071;-62
2022/08/03 08:19:36;;;;;;;;;;;27.00;99.90;;;;;;5113267;27;19947;-62
2022/08/03 08:22:02;;;;;;;;;;;27.40;99.90;;;;;;5117367;27;19914;-62
2022/08/03 08:24:29;;;;;;;;;;;27.80;99.90;;;;;;5115140;27;19931;-62
2022/08/03 08:26:55;;;;;;;;;;;28.20;98.70;;;;;;5099382;28;20303;-62
2022/08/03 08:29:22;;;;;;;;;;;28.40;98.30;;;;;;5118290;27;20022;-62
2022/08/03 08:31:48;;;;;;;;;;;28.40;98.70;;;;;;5117915;27;19930;-62
2022/08/03 08:34:14;;;;;;;;;;;28.40;98.40;;;;;;5118596;27;19968;-62
2022/08/03 08:36:40;;;;;;;;;;;28.70;97.70;;;;;;5099987;27;19912;-62
2022/08/03 08:39:06;;;;;;;;;;;29.30;96.90;;;;;;5100321;28;19961;-62
2022/08/03 08:41:33;;;;;;;;;;;29.80;96.00;;;;;;5117903;27;19960;-63
2022/08/03 08:43:59;;;;;;;;;;;30.30;95.10;;;;;;5115685;27;19908;-63
2022/08/03 08:46:25;;;;;;;;;;;30.20;94.80;;;;;;5118105;27;19911;-62
2022/08/03 08:48:51;;;;;;;;;;;29.60;95.00;;;;;;5116030;28;20390;-62
2022/08/03 08:51:18;;;;;;;;;;;29.70;95.20;;;;;;5116744;27;19912;-62
2022/08/03 08:53:46;;;;;;;;;;;29.50;95.50;;;;;;5117610;27;19907;-63
2022/08/03 08:56:16;;;;;;;;;;;29.50;94.80;;;;;;5113742;28;19935;-62
2022/08/03 08:58:45;;;;;;;;;;;29.80;94.30;;;;;;5116975;28;19908;-62
2022/08/03 09:01:11;;;;;;;;;;;30.30;93.70;;;;;;5117204;28;19911;-63
2022/08/03 09:03:37;;;;;;;;;;;30.60;93.30;;;;;;5114528;28;19998;-63
2022/08/03 09:06:02;;;;;;;;;;;30.70;92.40;;;;;;5115037;28;19915;-62
2022/08/03 09:08:28;;;;;;;;;;;30.70;92.50;;;;;;5117305;28;19914;-63
2022/08/03 09:10:54;;;;;;;;;;;31.00;92.20;;;;;;5118528;28;19907;-63
2022/08/03 09:13:20;;;;;;;;;;;31.10;92.30;;;;;;5116411;28;19915;-63
2022/08/03 09:15:45;;;;;;;;;;;31.40;92.00;;;;;;5116311;28;20348;-63
2022/08/03 09:18:12;;;;;;;;;;;31.70;91.10;;;;;;5116819;28;20061;-63
2022/08/03 09:20:38;;;;;;;;;;;31.00;91.10;;;;;;5113038;28;20229;-62
2022/08/03 09:23:07;;;;;;;;;;;31.20;91.60;;;;;;5119459;28;19914;-63
2022/08/03 09:25:41;;;;;;;;;;;30.80;91.30;;;;;;5112294;28;19916;-62
2022/08/03 09:28:11;;;;;;;;;;;31.00;91.90;;;;;;5114642;28;20408;-63
2022/08/03 09:30:38;;;;;;;;;;;31.20;91.70;;;;;;5100284;28;19912;-63
2022/08/03 09:33:05;;;;;;;;;;;32.10;90.90;;;;;;5123883;28;20294;-63
2022/08/03 09:35:31;;;;;;;;;;;32.40;89.10;;;;;;5113333;28;19915;-63
2022/08/03 09:38:09;;;;;;;;;;;32.40;89.80;;;;;;5116107;28;19907;-63
2022/08/03 09:40:35;;;;;;;;;;;32.40;89.30;;;;;;5110851;28;20011;-63
2022/08/03 09:43:01;;;;;;;;;;;32.00;88.00;;;;;;5115776;27;19907;-62
2022/08/03 09:45:27;;;;;;;;;;;31.30;90.20;;;;;;5119648;27;19908;-63
2022/08/03 09:47:52;;;;;;;;;;;31.60;89.60;;;;;;5116102;27;19908;-63
2022/08/03 09:50:18;;;;;;;;;;;31.60;89.40;;;;;;5123690;27;19914;-62
2022/08/03 09:52:46;;;;;;;;;;;31.40;90.60;;;;;;5102249;28;19912;-63
2022/08/03 09:55:13;;;;;;;;;;;31.80;90.00;;;;;;5121601;27;20371;-63
2022/08/03 09:57:45;;;;;;;;;;;32.60;88.00;;;;;;5103610;28;20364;-63
2022/08/03 10:00:12;;;;;;;;;;;32.40;87.50;;;;;;5120359;27;20002;-63
2022/08/03 10:02:38;;;;;;;;;;;32.40;88.40;;;;;;5101416;27;20014;-63
2022/08/03 10:05:04;;;;;;;;;;;32.60;86.90;;;;;;5116377;27;19911;-63
2022/08/03 10:07:40;;;;;;;;;;;32.60;85.10;;;;;;5122162;27;19911;-63
2022/08/03 10:10:06;;;;;;;;;;;32.20;86.00;;;;;;5117446;27;20444;-63
2022/08/03 10:12:32;;;;;;;;;;;32.60;85.60;;;;;;5120734;27;20229;-63
2022/08/03 10:14:58;;;;;;;;;;;32.90;85.20;;;;;;5120670;27;19912;-62
2022/08/03 10:17:23;;;;;;;;;;;33.00;85.40;;;;;;5099831;28;19915;-63
2022/08/03 10:19:49;;;;;;;;;;;33.40;84.00;;;;;;5118874;27;20009;-63
2022/08/03 10:22:17;;;;;;;;;;;32.90;84.50;;;;;;5116801;27;20003;-63
2022/08/03 10:24:58;;;;;;;;;;;33.30;84.40;;;;;;5116854;27;19918;-62
2022/08/03 10:27:24;;;;;;;;;;;33.00;83.80;;;;;;5117555;27;19927;-63
2022/08/03 10:29:54;;;;;;;;;;;32.50;82.90;;;;;;5107650;27;20503;-63
2022/08/03 10:32:38;;;;;;;;;;;32.70;84.20;;;;;;5117337;27;19931;-63
2022/08/03 10:35:15;;;;;;;;;;;33.30;83.70;;;;;;5121320;27;20347;-63
2022/08/03 10:37:42;;;;;;;;;;;33.90;80.90;;;;;;5114247;27;20014;-63
2022/08/03 10:40:11;;;;;;;;;;;34.20;80.90;;;;;;5118390;27;20367;-63
2022/08/03 10:42:37;;;;;;;;;;;34.40;79.40;;;;;;5117071;27;19908;-63
2022/08/03 10:45:04;;;;;;;;;;;34.70;78.80;;;;;;5118779;27;20203;-63
2022/08/03 10:47:30;;;;;;;;;;;35.10;79.40;;;;;;5115533;27;19919;-63
2022/08/03 10:49:56;;;;;;;;;;;35.40;78.30;;;;;;5121286;27;19919;-63
2022/08/03 10:52:22;;;;;;;;;;;34.90;79.40;;;;;;5125769;27;20282;-63
2022/08/03 10:57:47;;;;;;;;;;;34.80;77.90;;;;;;5074677;28;19973;-63
2022/08/03 11:00:13;;;;;;;;;;;34.70;78.60;;;;;;5081982;28;19922;-63
2022/08/03 11:02:58;;;;;;;;;;;34.80;78.80;;;;;;5077705;28;19958;-63
2022/08/03 11:05:24;;;;;;;;;;;34.80;77.10;;;;;;5079921;28;19947;-63
2022/08/03 11:07:50;;;;;;;;;;;34.30;78.00;;;;;;5075719;28;19912;-63
2022/08/03 11:10:28;;;;;;;;;;;34.60;77.40;;;;;;5084934;28;19917;-63
2022/08/03 11:13:04;;;;;;;;;;;34.30;78.70;;;;;;5081211;28;19908;-63
2022/08/03 11:15:31;;;;;;;;;;;35.30;77.60;;;;;;5078151;28;19923;-63
2022/08/03 11:18:09;;;;;;;;;;;35.40;75.90;;;;;;5075900;28;20372;-63
2022/08/03 11:20:47;;;;;;;;;;;35.60;75.50;;;;;;5078021;28;20212;-63
2022/08/03 11:23:13;;;;;;;;;;;36.30;75.20;;;;;;5074186;28;19965;-63
2022/08/03 11:25:57;;;;;;;;;;;36.40;73.20;;;;;;5073814;28;19917;-63
2022/08/03 11:28:27;;;;;;;;;;;36.40;73.40;;;;;;5077322;28;19916;-63
2022/08/03 11:30:52;;;;;;;;;;;36.50;74.60;;;;;;5088379;28;19918;-64
2022/08/03 11:33:28;;;;;;;;;;;37.20;72.10;;;;;;5087066;28;19908;-63
2022/08/03 11:35:57;;;;;;;;;;;37.10;72.40;;;;;;5076169;28;19920;-63
2022/08/03 11:38:23;;;;;;;;;;;37.00;71.30;;;;;;5080736;28;19912;-64
2022/08/03 11:40:52;;;;;;;;;;;37.00;72.70;;;;;;5073148;28;19912;-63
2022/08/03 11:43:21;;;;;;;;;;;36.70;70.90;;;;;;5077205;28;20374;-63
2022/08/03 11:46:05;;;;;;;;;;;36.60;71.00;;;;;;5077836;28;20399;-63
2022/08/03 11:48:37;;;;;;;;;;;35.80;71.30;;;;;;5076011;28;20258;-63
2022/08/03 11:51:04;;;;;;;;;;;35.90;70.90;;;;;;5074241;28;19908;-63
2022/08/03 11:53:29;;;;;;;;;;;35.70;71.80;;;;;;5082337;28;19957;-63
2022/08/03 11:55:57;;;;;;;;;;;35.90;71.80;;;;;;5083472;28;19931;-63
2022/08/03 11:58:23;;;;;;;;;;;37.00;71.50;;;;;;5094336;28;19908;-63
2022/08/03 12:00:49;;;;;;;;;;;37.60;69.40;;;;;;5096064;28;20011;-63
2022/08/03 12:03:16;;;;;;;;;;;36.90;69.50;;;;;;5095042;28;19907;-63
2022/08/03 12:05:49;;;;;;;;;;;37.70;68.60;;;;;;5096294;28;19916;-63
2022/08/03 12:08:17;;;;;;;;;;;37.50;68.60;;;;;;5092412;28;19956;-63
2022/08/03 12:10:47;;;;;;;;;;;38.30;68.10;;;;;;5097127;28;19912;-63
2022/08/03 12:13:12;;;;;;;;;;;37.30;68.90;;;;;;5096246;28;19913;-63
2022/08/03 12:15:38;;;;;;;;;;;36.40;70.70;;;;;;5096753;28;20442;-63
2022/08/03 12:18:12;;;;;;;;;;;36.80;69.90;;;;;;5097071;28;19973;-65
2022/08/03 12:20:38;;;;;;;;;;;37.70;68.80;;;;;;5097502;28;19912;-63
2022/08/03 12:23:05;;;;;;;;;;;38.40;67.20;;;;;;5097280;28;19933;-63
2022/08/03 12:25:31;;;;;;;;;;;39.10;68.10;;;;;;5099862;28;20002;-63
2022/08/03 12:28:07;;;;;;;;;;;38.80;66.60;;;;;;5095627;28;20314;-63
2022/08/03 12:30:33;;;;;;;;;;;38.60;67.40;;;;;;5095553;28;20296;-63
2022/08/03 12:33:10;;;;;;;;;;;38.80;66.40;;;;;;5099418;28;20331;-63
2022/08/03 12:35:36;;;;;;;;;;;38.30;67.10;;;;;;5093102;28;19912;-63
2022/08/03 12:38:01;;;;;;;;;;;38.60;67.00;;;;;;5098839;28;19911;-63
2022/08/03 12:40:27;;;;;;;;;;;39.20;66.40;;;;;;5096385;28;19908;-63
2022/08/03 12:42:53;;;;;;;;;;;39.80;65.90;;;;;;5095141;28;19919;-64
2022/08/03 12:45:19;;;;;;;;;;;39.80;64.90;;;;;;5097121;28;19908;-63
2022/08/03 12:47:48;;;;;;;;;;;39.60;65.20;;;;;;5092495;28;19912;-63
2022/08/03 12:50:22;;;;;;;;;;;39.50;65.00;;;;;;5106749;28;19912;-63
2022/08/03 12:52:48;;;;;;;;;;;37.40;66.20;;;;;;5105472;28;19913;-63
2022/08/03 12:55:19;;;;;;;;;;;37.90;66.10;;;;;;5102295;28;19920;-63
2022/08/03 12:57:44;;;;;;;;;;;37.80;66.10;;;;;;5096020;28;20425;-63
2022/08/03 13:00:11;;;;;;;;;;;38.10;65.40;;;;;;5115675;28;19955;-63
2022/08/03 13:02:37;;;;;;;;;;;38.20;65.30;;;;;;5116541;28;19950;-63
2022/08/03 13:05:09;;;;;;;;;;;38.10;65.60;;;;;;5116838;28;20013;-63
2022/08/03 13:07:39;;;;;;;;;;;37.80;66.30;;;;;;5119016;28;19911;-63
2022/08/03 13:10:04;;;;;;;;;;;38.20;65.10;;;;;;5117177;28;19923;-63
2022/08/03 13:12:31;;;;;;;;;;;38.40;65.10;;;;;;5118384;28;19916;-63
2022/08/03 13:14:58;;;;;;;;;;;38.80;64.60;;;;;;5108647;28;19912;-63
2022/08/03 13:17:23;;;;;;;;;;;39.70;65.00;;;;;;5098597;27;20335;-63
2022/08/03 13:19:49;;;;;;;;;;;39.90;64.00;;;;;;5122573;27;19954;-63
2022/08/03 13:22:15;;;;;;;;;;;40.00;63.30;;;;;;5116981;27;19907;-63
2022/08/03 13:24:41;;;;;;;;;;;40.10;63.50;;;;;;5110190;27;19907;-63
2022/08/03 13:27:07;;;;;;;;;;;39.20;64.70;;;;;;5118322;27;19920;-63
2022/08/03 13:29:33;;;;;;;;;;;40.00;64.70;;;;;;5121069;27;19933;-63
2022/08/03 13:31:59;;;;;;;;;;;40.40;63.90;;;;;;5119389;27;19929;-63
2022/08/03 13:34:25;;;;;;;;;;;40.20;63.40;;;;;;5123122;27;20434;-63
2022/08/03 13:36:51;;;;;;;;;;;40.20;63.90;;;;;;5124098;27;20003;-63
2022/08/03 13:39:18;;;;;;;;;;;40.60;62.50;;;;;;5120307;27;19915;-63
2022/08/03 13:41:44;;;;;;;;;;;41.30;62.60;;;;;;5122043;27;19960;-63
2022/08/03 13:44:09;;;;;;;;;;;41.20;62.00;;;;;;5112436;27;19912;-63
2022/08/03 13:46:35;;;;;;;;;;;41.80;61.10;;;;;;5119195;27;19908;-63
2022/08/03 13:49:00;;;;;;;;;;;41.20;61.50;;;;;;5118876;27;19960;-63
2022/08/03 13:51:26;;;;;;;;;;;41.10;61.20;;;;;;5112927;27;19912;-63
2022/08/03 13:53:51;;;;;;;;;;;42.20;59.80;;;;;;5123611;27;20279;-63
2022/08/03 13:56:17;;;;;;;;;;;42.50;60.20;;;;;;5115925;27;19935;-63
2022/08/03 13:58:42;;;;;;;;;;;40.70;60.20;;;;;;5115319;27;19927;-63
2022/08/03 14:01:08;;;;;;;;;;;40.80;61.40;;;;;;5119026;27;19911;-63
2022/08/03 14:03:33;;;;;;;;;;;40.00;61.60;;;;;;5124073;27;19914;-63
2022/08/03 14:05:59;;;;;;;;;;;40.00;61.70;;;;;;5120458;27;20497;-63
2022/08/03 14:08:24;;;;;;;;;;;39.50;61.30;;;;;;5118629;27;20367;-63
2022/08/03 14:10:50;;;;;;;;;;;39.40;62.70;;;;;;5121329;27;19911;-63
2022/08/03 14:13:16;;;;;;;;;;;41.50;61.60;;;;;;5123700;27;19994;-63
2022/08/03 14:15:41;;;;;;;;;;;41.20;60.10;;;;;;5119479;27;19947;-63
2022/08/03 14:18:08;;;;;;;;;;;41.40;59.50;;;;;;5116000;27;19907;-63
2022/08/03 14:20:33;;;;;;;;;;;42.40;60.50;;;;;;5119972;27;20450;-62
2022/08/03 14:22:59;;;;;;;;;;;40.30;60.60;;;;;;5119161;27;20006;-63
2022/08/03 14:25:25;;;;;;;;;;;39.60;61.50;;;;;;5098967;27;19916;-63